Time;durP1;ratioP1;P1;durP2;ratioP2;P2;SDS_P1;SDS_P2;PMS_P1;PMS_P2;Temp;Humidity;BMP_temperature;BMP_pressure;BME280_temperature;BME280_humidity;BME280_pressure;Samples;Min_cycle;Max_cycle;Signal;HPM_P1;HPM_P2
2023/01/29 00:01:49;;;;;;;3.75;2.40;;;17.60;31.90;;;;;;5032096;28;20234;-71
2023/01/29 00:04:16;;;;;;;2.85;2.42;;;17.70;32.00;;;;;;5032319;28;20236;-71
2023/01/29 00:06:43;;;;;;;3.20;2.30;;;17.70;32.00;;;;;;5032443;28;20227;-71
2023/01/29 00:09:11;;;;;;;3.22;2.60;;;17.60;31.90;;;;;;5033054;28;20303;-71
2023/01/29 00:11:40;;;;;;;3.00;2.35;;;17.70;32.10;;;;;;5031535;28;20633;-69
2023/01/29 00:14:08;;;;;;;3.90;2.80;;;17.60;31.90;;;;;;5032108;28;20267;-68
2023/01/29 00:16:35;;;;;;;3.13;2.63;;;17.60;32.00;;;;;;5031186;28;20184;-68
2023/01/29 00:19:02;;;;;;;3.58;2.78;;;17.60;32.00;;;;;;5032106;28;20243;-70
2023/01/29 00:21:30;;;;;;;3.22;2.55;;;17.60;32.10;;;;;;5032437;28;20251;-70
2023/01/29 00:23:58;;;;;;;3.15;2.85;;;17.60;32.00;;;;;;5032278;28;20196;-70
2023/01/29 00:26:25;;;;;;;3.22;2.78;;;17.60;32.10;;;;;;5032181;28;20212;-73
2023/01/29 00:28:55;;;;;;;4.53;3.20;;;17.60;32.00;;;;;;5032180;28;20257;-69
2023/01/29 00:31:24;;;;;;;2.88;2.60;;;17.60;32.10;;;;;;5031964;28;20673;-68
2023/01/29 00:33:52;;;;;;;4.53;3.40;;;17.60;32.10;;;;;;5034377;28;20197;-71
2023/01/29 00:36:21;;;;;;;3.35;2.97;;;17.60;32.10;;;;;;5036740;28;20227;-70
2023/01/29 00:38:53;;;;;;;5.05;3.33;;;17.60;32.10;;;;;;5036159;28;20259;-73
2023/01/29 00:46:52;;;;;;;4.97;3.13;;;17.60;32.20;;;;;;5036078;28;20218;-70
2023/01/29 00:49:19;;;;;;;3.83;3.15;;;17.50;32.20;;;;;;5035730;28;20220;-70
2023/01/29 00:52:22;;;;;;;5.00;3.90;;;17.50;32.10;;;;;;5036292;28;20192;-71
2023/01/29 00:54:34;;;;;;;3.97;3.25;;;17.50;32.20;;;;;;5035511;28;20310;-71
2023/01/29 00:57:02;;;;;;;5.53;3.30;;;17.60;32.30;;;;;;5035645;28;20200;-71
2023/01/29 00:59:31;;;;;;;6.32;3.15;;;17.50;32.20;;;;;;5035463;28;20262;-70
2023/01/29 01:04:43;;;;;;;4.82;3.63;;;17.50;32.30;;;;;;5035325;28;20358;-73
2023/01/29 01:07:10;;;;;;;3.92;3.28;;;17.50;32.30;;;;;;5036014;28;20228;-72
2023/01/29 01:12:21;;;;;;;4.78;3.80;;;17.50;32.30;;;;;;5014812;28;20273;-74
2023/01/29 01:14:50;;;;;;;4.88;3.75;;;17.50;32.40;;;;;;5035092;28;20653;-71
2023/01/29 01:17:17;;;;;;;4.28;3.88;;;17.50;32.40;;;;;;5035210;28;20246;-70
2023/01/29 01:19:44;;;;;;;6.15;3.90;;;17.50;32.40;;;;;;5035477;28;20690;-70
2023/01/29 01:22:11;;;;;;;5.25;4.20;;;17.50;32.40;;;;;;5035270;28;20205;-73
2023/01/29 01:24:39;;;;;;;5.45;3.70;;;17.50;32.40;;;;;;5035047;28;20649;-72
2023/01/29 01:27:06;;;;;;;4.75;3.40;;;17.50;32.40;;;;;;5035265;28;20219;-72
2023/01/29 01:29:33;;;;;;;4.28;3.58;;;17.50;32.40;;;;;;5035523;28;20220;-70
2023/01/29 01:32:02;;;;;;;5.18;3.70;;;17.50;32.40;;;;;;5035339;28;20246;-71
2023/01/29 01:34:29;;;;;;;4.35;3.78;;;17.50;32.40;;;;;;5034917;28;20270;-71
2023/01/29 01:36:56;;;;;;;5.05;3.60;;;17.50;32.50;;;;;;5034758;28;20713;-72
2023/01/29 01:39:24;;;;;;;4.30;3.50;;;17.50;32.50;;;;;;5035385;28;20212;-71
2023/01/29 01:41:53;;;;;;;4.78;3.45;;;17.50;32.50;;;;;;5035110;28;20192;-70
2023/01/29 01:44:57;;;;;;;4.90;3.88;;;17.40;32.40;;;;;;5034901;28;20230;-71
2023/01/29 01:47:30;;;;;;;6.32;3.60;;;17.40;32.50;;;;;;5034910;28;20266;-71
2023/01/29 01:50:02;;;;;;;4.55;3.47;;;17.40;32.50;;;;;;5035698;28;20212;-71
2023/01/29 01:52:32;;;;;;;4.55;3.60;;;17.40;32.60;;;;;;5034737;28;20556;-71
2023/01/29 01:55:00;;;;;;;5.13;3.60;;;17.40;32.60;;;;;;5034943;28;20228;-71
2023/01/29 01:57:30;;;;;;;5.07;3.83;;;17.40;32.60;;;;;;5034818;28;20745;-71
2023/01/29 01:59:59;;;;;;;4.57;3.88;;;17.40;32.60;;;;;;5034836;28;20219;-71
2023/01/29 02:10:47;;;;;;;4.57;3.63;;;17.40;32.70;;;;;;5034479;28;20251;-71
2023/01/29 02:13:17;;;;;;;5.05;4.20;;;17.40;32.70;;;;;;5034487;28;20238;-71
2023/01/29 02:15:47;;;;;;;5.85;3.92;;;17.40;32.70;;;;;;5034383;28;20224;-71
2023/01/29 02:18:17;;;;;;;4.43;3.70;;;17.40;32.70;;;;;;5034534;28;20188;-70
2023/01/29 02:20:53;;;;;;;5.07;3.70;;;17.30;32.60;;;;;;5034181;28;20270;-71
2023/01/29 02:23:51;;;;;;;5.50;4.30;;;17.40;32.70;;;;;;5034073;28;20203;-73
2023/01/29 02:27:01;;;;;;;4.45;3.33;;;17.40;32.70;;;;;;5033820;28;20278;-71
2023/01/29 02:29:37;;;;;;;4.28;3.58;;;17.40;32.80;;;;;;5023688;28;20274;-71
2023/01/29 02:32:26;;;;;;;5.05;3.80;;;17.40;32.80;;;;;;5033865;28;20198;-70
2023/01/29 02:38:03;;;;;;;5.60;4.57;;;17.40;32.90;;;;;;5034174;28;20188;-70
2023/01/29 02:40:35;;;;;;;4.80;3.70;;;17.40;32.90;;;;;;5033674;28;20631;-71
2023/01/29 02:43:13;;;;;;;4.72;3.80;;;17.30;32.80;;;;;;5033917;28;20196;-71
2023/01/29 02:45:47;;;;;;;5.50;4.20;;;17.40;32.90;;;;;;5033973;28;20224;-74
2023/01/29 02:48:19;;;;;;;4.75;4.00;;;17.30;32.90;;;;;;5033833;28;20261;-70
2023/01/29 02:50:55;;;;;;;5.70;3.90;;;17.30;32.90;;;;;;5033598;28;20212;-70
2023/01/29 02:53:27;;;;;;;4.50;3.50;;;17.30;32.90;;;;;;5033737;28;20333;-71
2023/01/29 02:56:00;;;;;;;3.90;3.50;;;17.30;32.90;;;;;;5033214;28;20216;-71
2023/01/29 02:58:31;;;;;;;4.50;3.83;;;17.30;32.90;;;;;;5034234;28;20242;-71
2023/01/29 03:01:06;;;;;;;4.57;3.78;;;17.30;33.60;;;;;;5033781;28;20221;-71
2023/01/29 03:03:38;;;;;;;4.22;3.60;;;17.30;33.00;;;;;;5033123;28;20196;-70
2023/01/29 03:06:10;;;;;;;4.70;3.85;;;17.30;33.00;;;;;;5033277;28;20701;-70
2023/01/29 03:08:44;;;;;;;5.13;3.83;;;17.30;33.00;;;;;;5033473;28;20262;-70
2023/01/29 03:11:14;;;;;;;4.90;3.65;;;17.30;33.00;;;;;;5033393;28;20266;-70
2023/01/29 03:13:45;;;;;;;4.50;3.30;;;17.30;33.00;;;;;;5033299;28;20287;-70
2023/01/29 03:16:21;;;;;;;4.45;3.65;;;17.30;33.10;;;;;;5033054;28;20640;-71
2023/01/29 03:18:53;;;;;;;4.30;3.45;;;17.30;33.10;;;;;;5033274;28;20246;-74
2023/01/29 03:32:37;;;;;;;3.88;3.22;;;17.30;33.20;;;;;;5013142;28;20235;-70
2023/01/29 03:35:10;;;;;;;4.90;3.45;;;17.30;33.30;;;;;;5012963;28;20221;-71
2023/01/29 03:37:41;;;;;;;3.30;3.00;;;17.30;33.30;;;;;;5013382;28;20193;-71
2023/01/29 03:40:10;;;;;;;3.95;3.15;;;17.30;33.30;;;;;;5012924;28;20221;-71
2023/01/29 03:42:50;;;;;;;4.88;2.92;;;17.20;33.20;;;;;;5012789;28;20683;-70
2023/01/29 03:45:22;;;;;;;4.65;3.30;;;17.20;33.30;;;;;;5012768;28;20217;-70
2023/01/29 03:47:58;;;;;;;3.58;2.88;;;17.20;33.30;;;;;;5012698;28;20219;-71
2023/01/29 03:50:35;;;;;;;3.47;2.88;;;17.20;33.30;;;;;;5013013;28;20216;-71
2023/01/29 03:53:08;;;;;;;3.88;3.10;;;17.30;33.50;;;;;;5013099;28;20244;-70
2023/01/29 03:55:40;;;;;;;2.88;2.60;;;17.20;33.40;;;;;;5012964;28;20256;-71
2023/01/29 03:58:20;;;;;;;4.80;2.78;;;17.20;33.40;;;;;;5012984;28;20193;-70
2023/01/29 04:00:55;;;;;;;4.22;3.08;;;17.20;33.50;;;;;;5012655;28;20216;-70
2023/01/29 04:03:31;;;;;;;4.22;2.90;;;17.20;33.50;;;;;;5013924;28;20655;-71
2023/01/29 04:06:08;;;;;;;3.13;2.60;;;17.20;33.50;;;;;;5012930;28;20217;-70
2023/01/29 04:08:40;;;;;;;3.25;2.40;;;17.20;33.50;;;;;;5011928;28;20219;-71
2023/01/29 04:11:12;;;;;;;3.00;2.70;;;17.20;33.50;;;;;;5012963;28;20217;-70
2023/01/29 04:13:40;;;;;;;3.47;2.40;;;17.20;33.50;;;;;;5012367;28;20188;-70
2023/01/29 04:16:13;;;;;;;3.40;2.60;;;17.20;33.50;;;;;;5012463;28;20267;-72
2023/01/29 04:18:45;;;;;;;3.22;2.80;;;17.20;33.60;;;;;;5012701;28;20607;-70
2023/01/29 04:21:12;;;;;;;2.47;2.20;;;17.20;33.60;;;;;;5012476;28;20695;-70
2023/01/29 04:23:39;;;;;;;2.42;2.20;;;17.20;33.60;;;;;;5012352;28;20188;-70
2023/01/29 04:26:49;;;;;;;2.80;2.20;;;17.20;33.60;;;;;;5012176;28;20275;-70
2023/01/29 04:29:25;;;;;;;2.70;2.25;;;17.20;33.70;;;;;;5012471;28;20608;-70
2023/01/29 04:32:01;;;;;;;3.13;2.10;;;17.20;33.70;;;;;;5012559;28;20197;-70
2023/01/29 04:34:45;;;;;;;2.40;2.10;;;17.20;33.70;;;;;;5012265;28;20227;-70
2023/01/29 04:37:18;;;;;;;2.38;2.15;;;17.20;33.70;;;;;;5012192;28;20192;-70
2023/01/29 04:39:52;;;;;;;2.83;2.40;;;17.20;33.70;;;;;;5012496;28;20217;-70
2023/01/29 04:42:29;;;;;;;2.67;2.10;;;17.20;33.70;;;;;;5012250;28;20247;-71
2023/01/29 04:45:01;;;;;;;2.45;2.00;;;17.20;33.80;;;;;;5010876;28;20221;-70
2023/01/29 04:47:35;;;;;;;2.20;2.00;;;17.10;33.80;;;;;;5012370;28;20663;-71
2023/01/29 04:50:15;;;;;;;2.92;2.00;;;17.10;33.90;;;;;;5012226;28;20303;-71
2023/01/29 04:52:50;;;;;;;2.17;1.98;;;17.20;34.00;;;;;;5012437;28;20193;-70
2023/01/29 04:55:25;;;;;;;2.10;1.90;;;17.20;34.00;;;;;;5012365;28;20221;-71
2023/01/29 04:57:59;;;;;;;2.55;1.83;;;17.10;33.90;;;;;;5013289;28;20188;-70
2023/01/29 05:00:31;;;;;;;2.50;2.28;;;17.10;34.00;;;;;;5024066;28;20217;-70
2023/01/29 05:03:00;;;;;;;3.20;2.25;;;17.10;34.00;;;;;;5011819;28;20220;-70
2023/01/29 05:05:30;;;;;;;2.10;1.77;;;17.10;34.00;;;;;;5011815;28;20299;-70
2023/01/29 05:07:58;;;;;;;2.28;1.90;;;17.10;34.00;;;;;;5012412;28;20307;-71
2023/01/29 05:10:26;;;;;;;2.55;2.28;;;17.10;34.00;;;;;;5012253;28;20213;-73
2023/01/29 05:13:00;;;;;;;1.90;1.77;;;17.10;34.10;;;;;;5012172;28;20193;-70
2023/01/29 05:15:33;;;;;;;2.88;2.00;;;17.10;34.00;;;;;;5011698;28;20221;-70
2023/01/29 05:18:01;;;;;;;3.00;2.10;;;17.10;34.00;;;;;;5012186;28;20246;-70
2023/01/29 05:20:33;;;;;;;3.08;2.47;;;17.10;34.70;;;;;;5014647;28;20602;-70
2023/01/29 05:23:00;;;;;;;2.10;1.90;;;17.20;34.10;;;;;;5015750;28;20619;-70
2023/01/29 05:25:29;;;;;;;2.10;1.90;;;17.10;34.00;;;;;;5015551;28;20279;-74
2023/01/29 05:28:05;;;;;;;2.22;1.73;;;17.10;34.00;;;;;;5015610;28;20244;-70
2023/01/29 05:30:34;;;;;;;1.98;1.75;;;17.10;34.00;;;;;;5016643;28;20220;-70
2023/01/29 05:33:02;;;;;;;2.20;2.00;;;17.10;34.00;;;;;;5015267;28;20718;-72
2023/01/29 05:35:30;;;;;;;3.22;1.80;;;17.10;34.00;;;;;;5017011;28;20229;-70
2023/01/29 05:37:58;;;;;;;2.10;1.90;;;17.10;34.00;;;;;;5015476;28;20255;-70
2023/01/29 05:40:25;;;;;;;3.40;2.33;;;17.10;34.00;;;;;;5015387;28;20217;-70
2023/01/29 05:42:52;;;;;;;1.70;1.60;;;17.10;34.00;;;;;;5015478;28;20189;-70
2023/01/29 05:45:20;;;;;;;2.10;1.77;;;17.10;34.00;;;;;;5015270;28;20263;-70
2023/01/29 05:47:47;;;;;;;2.80;2.00;;;17.10;34.00;;;;;;5014862;28;20217;-70
2023/01/29 05:50:15;;;;;;;2.15;1.67;;;17.10;34.00;;;;;;5015213;28;20256;-71
2023/01/29 05:52:45;;;;;;;2.38;1.80;;;17.10;34.10;;;;;;5015050;28;20235;-70
2023/01/29 05:55:12;;;;;;;2.20;1.75;;;17.10;34.00;;;;;;5015060;28;20221;-70
2023/01/29 05:57:40;;;;;;;2.03;1.83;;;17.10;34.00;;;;;;5016187;28;20602;-70
2023/01/29 06:00:09;;;;;;;2.15;1.95;;;17.10;34.00;;;;;;5014831;28;20217;-70
2023/01/29 06:02:36;;;;;;;3.40;1.70;;;17.10;34.00;;;;;;5014608;28;20225;-70
2023/01/29 06:05:04;;;;;;;1.63;1.52;;;17.10;34.10;;;;;;5014517;28;20655;-70
2023/01/29 06:07:31;;;;;;;2.10;1.70;;;17.10;34.10;;;;;;4996504;28;20306;-70
2023/01/29 06:10:00;;;;;;;2.42;1.58;;;17.00;34.00;;;;;;5014832;28;20217;-70
2023/01/29 06:12:27;;;;;;;3.72;2.05;;;17.00;34.70;;;;;;5015697;28;20244;-71
2023/01/29 06:14:54;;;;;;;1.73;1.63;;;17.00;34.00;;;;;;5014375;28;20267;-72
2023/01/29 06:17:22;;;;;;;2.20;2.00;;;17.10;34.10;;;;;;5014651;28;20267;-71
2023/01/29 06:19:49;;;;;;;2.00;1.80;;;17.10;34.20;;;;;;5014362;28;20634;-70
2023/01/29 06:22:16;;;;;;;2.70;2.25;;;17.00;34.10;;;;;;5014568;28;20189;-71
2023/01/29 06:24:44;;;;;;;2.25;2.00;;;17.00;34.10;;;;;;5014245;28;20201;-70
2023/01/29 06:27:13;;;;;;;2.10;1.95;;;17.00;34.20;;;;;;5014409;28;20212;-71
2023/01/29 06:29:40;;;;;;;1.88;1.77;;;17.00;34.20;;;;;;5014393;28;20189;-70
2023/01/29 06:32:07;;;;;;;3.28;2.30;;;17.00;34.20;;;;;;5013058;28;20546;-71
2023/01/29 06:34:34;;;;;;;2.10;1.90;;;17.00;34.30;;;;;;5013984;28;20549;-70
2023/01/29 06:37:02;;;;;;;2.30;2.10;;;17.00;34.30;;;;;;5014341;28;20190;-70
2023/01/29 06:39:29;;;;;;;2.40;2.20;;;17.00;34.40;;;;;;5014707;28;20248;-72
2023/01/29 06:41:56;;;;;;;2.03;1.83;;;17.00;34.40;;;;;;5014010;28;20636;-70
2023/01/29 06:44:25;;;;;;;2.65;2.45;;;17.00;34.40;;;;;;5013896;28;20726;-71
2023/01/29 06:46:52;;;;;;;2.33;2.13;;;17.00;34.40;;;;;;5013810;28;20217;-70
2023/01/29 06:49:20;;;;;;;3.05;2.30;;;17.00;34.40;;;;;;5014203;28;20598;-70
2023/01/29 06:51:47;;;;;;;2.30;2.10;;;17.00;34.40;;;;;;5013953;28;20271;-71
2023/01/29 06:54:14;;;;;;;3.20;2.60;;;17.00;34.50;;;;;;5014003;28;20193;-70
2023/01/29 06:56:41;;;;;;;2.38;2.13;;;17.00;34.50;;;;;;5013931;28;20225;-71
2023/01/29 06:59:09;;;;;;;2.33;2.08;;;17.00;34.50;;;;;;5013617;28;20741;-72
2023/01/29 07:01:41;;;;;;;3.17;2.50;;;17.00;34.50;;;;;;5013894;28;20268;-70
2023/01/29 07:04:08;;;;;;;3.15;2.30;;;17.00;34.50;;;;;;5013484;28;20287;-71
2023/01/29 07:06:36;;;;;;;3.13;2.80;;;17.00;34.50;;;;;;5013958;28;20221;-71
2023/01/29 07:09:03;;;;;;;4.18;2.85;;;17.00;34.60;;;;;;5012496;28;20225;-71
2023/01/29 07:11:30;;;;;;;3.67;2.78;;;17.00;34.60;;;;;;5013935;28;20293;-70
2023/01/29 07:13:57;;;;;;;2.42;2.20;;;17.00;34.70;;;;;;5012430;28;20193;-71
2023/01/29 07:16:25;;;;;;;3.28;2.38;;;17.00;34.70;;;;;;5013395;28;20228;-70
2023/01/29 07:18:53;;;;;;;4.32;2.45;;;17.00;34.70;;;;;;5013693;28;20204;-71
2023/01/29 07:21:20;;;;;;;2.63;2.30;;;17.00;34.70;;;;;;5013364;28;20633;-72
2023/01/29 07:23:48;;;;;;;3.30;2.70;;;17.00;34.70;;;;;;5013147;28;20721;-71
2023/01/29 07:26:15;;;;;;;5.13;2.67;;;17.00;34.70;;;;;;5013555;28;20250;-71
2023/01/29 07:28:42;;;;;;;2.90;2.50;;;17.00;35.40;;;;;;5013054;28;20217;-70
2023/01/29 07:31:13;;;;;;;2.90;2.40;;;17.00;34.70;;;;;;5013815;28;20267;-70
2023/01/29 07:33:40;;;;;;;3.33;2.90;;;16.90;34.70;;;;;;5013284;28;20198;-70
2023/01/29 07:36:11;;;;;;;3.97;2.78;;;17.00;34.80;;;;;;5013121;28;20271;-71
2023/01/29 07:38:38;;;;;;;3.08;2.70;;;16.90;34.70;;;;;;5012943;28;20197;-70
2023/01/29 07:41:05;;;;;;;3.20;2.90;;;16.90;34.70;;;;;;5013263;28;20279;-70
2023/01/29 07:43:32;;;;;;;3.72;2.88;;;16.90;34.70;;;;;;5013918;28;20247;-70
2023/01/29 07:46:03;;;;;;;3.08;2.67;;;16.90;34.80;;;;;;5014213;28;20279;-70
2023/01/29 07:48:30;;;;;;;3.30;2.85;;;16.90;34.80;;;;;;5012760;28;20217;-70
2023/01/29 07:50:58;;;;;;;2.88;2.65;;;16.90;34.80;;;;;;5013050;28;20279;-70
2023/01/29 07:53:28;;;;;;;3.20;2.88;;;16.90;34.80;;;;;;5013030;28;20193;-70
2023/01/29 07:55:55;;;;;;;3.72;3.10;;;16.90;34.90;;;;;;5012966;28;20221;-71
2023/01/29 07:58:22;;;;;;;3.78;2.85;;;16.90;34.80;;;;;;5013740;28;20189;-71
2023/01/29 08:00:49;;;;;;;3.47;2.75;;;16.90;34.90;;;;;;5012597;28;20624;-70
2023/01/29 08:03:18;;;;;;;4.30;3.20;;;16.90;34.90;;;;;;5012884;28;20189;-70
2023/01/29 08:05:46;;;;;;;4.70;3.63;;;16.90;34.90;;;;;;5012478;28;20323;-70
2023/01/29 08:08:13;;;;;;;4.65;3.20;;;16.90;35.00;;;;;;5012675;28;20687;-70
2023/01/29 08:10:42;;;;;;;4.45;2.90;;;16.90;35.00;;;;;;5013523;28;20213;-70
2023/01/29 08:13:09;;;;;;;4.47;3.15;;;16.80;34.90;;;;;;5012793;28;20189;-70
2023/01/29 08:15:37;;;;;;;4.05;3.42;;;16.90;35.00;;;;;;5012697;28;20216;-70
2023/01/29 08:18:04;;;;;;;3.22;2.90;;;16.90;35.00;;;;;;5012358;28;20255;-70
2023/01/29 08:20:32;;;;;;;4.32;3.38;;;16.90;35.00;;;;;;5012677;28;20213;-70
2023/01/29 08:23:00;;;;;;;3.40;3.03;;;16.90;35.00;;;;;;5012386;28;20717;-70
2023/01/29 08:25:27;;;;;;;4.72;3.20;;;16.90;35.10;;;;;;5012375;28;20221;-70
2023/01/29 08:27:57;;;;;;;3.60;3.25;;;16.90;35.10;;;;;;5012349;28;20224;-71
2023/01/29 08:30:25;;;;;;;4.68;3.20;;;16.90;35.10;;;;;;5012280;28;20649;-72
2023/01/29 08:32:52;;;;;;;5.43;3.28;;;16.90;35.10;;;;;;5011285;28;20248;-70
2023/01/29 08:35:19;;;;;;;4.35;3.30;;;16.90;35.10;;;;;;5012519;28;20213;-73
2023/01/29 08:37:53;;;;;;;4.07;3.38;;;16.90;35.20;;;;;;5012625;28;20251;-71
2023/01/29 08:40:20;;;;;;;3.63;3.30;;;16.90;35.20;;;;;;5012497;28;20283;-70
2023/01/29 08:42:47;;;;;;;4.25;3.60;;;16.90;35.20;;;;;;5012459;28;20248;-70
2023/01/29 08:45:16;;;;;;;3.70;3.28;;;16.90;35.20;;;;;;5012432;28;20220;-73
2023/01/29 08:47:47;;;;;;;4.55;3.65;;;16.90;35.20;;;;;;5012572;28;20734;-70
2023/01/29 08:50:15;;;;;;;4.43;3.85;;;16.80;35.20;;;;;;5012388;28;20267;-71
2023/01/29 08:52:42;;;;;;;4.10;3.70;;;16.90;35.20;;;;;;5012106;28;20193;-73
2023/01/29 08:55:10;;;;;;;4.28;3.42;;;16.80;35.20;;;;;;5014911;28;20229;-70
2023/01/29 08:57:38;;;;;;;4.13;3.40;;;16.80;35.20;;;;;;5016282;28;20194;-70
2023/01/29 09:00:07;;;;;;;4.90;3.72;;;16.80;35.20;;;;;;5016084;28;20194;-70
2023/01/29 09:02:35;;;;;;;4.10;3.70;;;16.80;35.20;;;;;;5015735;28;20198;-71
2023/01/29 09:05:02;;;;;;;4.93;3.92;;;16.80;35.20;;;;;;5015615;28;20255;-70
2023/01/29 09:07:29;;;;;;;4.88;3.90;;;16.80;35.30;;;;;;5016027;28;20247;-71
2023/01/29 09:09:57;;;;;;;4.78;3.70;;;16.80;35.30;;;;;;5015543;28;20777;-71
2023/01/29 09:12:24;;;;;;;4.22;3.58;;;16.80;35.30;;;;;;5015929;28;20594;-74
2023/01/29 09:14:51;;;;;;;5.25;4.13;;;16.80;35.30;;;;;;5015845;28;20197;-70
2023/01/29 09:17:18;;;;;;;5.45;4.18;;;16.80;35.30;;;;;;5015853;28;20198;-71
2023/01/29 09:19:46;;;;;;;5.18;4.15;;;16.80;35.40;;;;;;5015779;28;20263;-71
2023/01/29 09:22:14;;;;;;;4.25;3.83;;;16.80;35.40;;;;;;5015752;28;20248;-73
2023/01/29 09:24:41;;;;;;;4.25;3.65;;;16.80;35.40;;;;;;5015762;28;20247;-72
2023/01/29 09:27:08;;;;;;;4.90;3.80;;;16.80;35.40;;;;;;5015487;28;20251;-70
2023/01/29 09:29:36;;;;;;;4.65;3.90;;;16.80;35.40;;;;;;5015612;28;20260;-70
2023/01/29 09:32:04;;;;;;;4.18;3.50;;;16.80;35.40;;;;;;5015731;28;20219;-70
2023/01/29 09:34:31;;;;;;;4.80;3.78;;;16.80;35.50;;;;;;5015257;28;20652;-71
2023/01/29 09:37:00;;;;;;;5.70;3.92;;;16.80;35.50;;;;;;5015302;28;20267;-70
2023/01/29 09:39:27;;;;;;;5.68;3.60;;;16.80;35.50;;;;;;5015432;28;20531;-70
2023/01/29 09:42:03;;;;;;;4.78;3.80;;;16.80;35.50;;;;;;5015524;28;20275;-74
2023/01/29 09:44:47;;;;;;;5.18;4.07;;;16.80;35.50;;;;;;5015319;28;20189;-70
2023/01/29 09:47:16;;;;;;;4.60;3.85;;;16.80;35.50;;;;;;5014991;28;20217;-74
2023/01/29 09:49:48;;;;;;;4.03;3.40;;;16.80;35.50;;;;;;5014907;28;20757;-71
2023/01/29 09:52:22;;;;;;;7.40;4.10;;;16.80;35.50;;;;;;5015095;28;20287;-70
2023/01/29 09:54:57;;;;;;;4.40;3.58;;;16.80;35.60;;;;;;5015219;28;20188;-71
2023/01/29 09:57:30;;;;;;;5.70;4.32;;;16.80;35.60;;;;;;5015161;28;20242;-70
2023/01/29 09:59:57;;;;;;;4.03;3.30;;;16.80;35.70;;;;;;5014711;28;20197;-70
2023/01/29 10:02:49;;;;;;;4.28;3.67;;;16.80;35.70;;;;;;5014654;28;20655;-70
2023/01/29 10:05:44;;;;;;;4.82;4.00;;;16.80;35.80;;;;;;5014596;28;20267;-70
2023/01/29 10:08:49;;;;;;;4.30;3.42;;;16.80;35.80;;;;;;5015989;28;20201;-70
2023/01/29 10:11:29;;;;;;;4.45;3.63;;;16.80;35.80;;;;;;5015004;28;20224;-71
2023/01/29 10:14:09;;;;;;;8.10;3.90;;;16.80;35.80;;;;;;5014799;28;20679;-71
2023/01/29 10:16:50;;;;;;;3.75;3.40;;;16.80;35.80;;;;;;5014680;28;20221;-70
2023/01/29 10:19:45;;;;;;;5.70;3.78;;;16.70;35.70;;;;;;5013659;28;20208;-73
2023/01/29 10:22:35;;;;;;;5.43;3.90;;;16.70;35.80;;;;;;5014535;28;20221;-71
2023/01/29 10:25:09;;;;;;;3.92;3.53;;;16.80;35.90;;;;;;5014174;28;20902;-71
2023/01/29 10:27:39;;;;;;;4.68;4.13;;;16.70;35.80;;;;;;5014521;28;20193;-72
2023/01/29 10:30:09;;;;;;;4.30;3.47;;;16.70;35.80;;;;;;5014363;28;20229;-73
2023/01/29 10:32:37;;;;;;;5.05;4.18;;;16.70;35.90;;;;;;5013344;28;20221;-73
2023/01/29 10:35:13;;;;;;;4.25;3.40;;;16.70;35.90;;;;;;5014396;28;20259;-70
2023/01/29 10:37:42;;;;;;;4.68;3.50;;;16.70;35.90;;;;;;5014126;28;20260;-71
2023/01/29 10:40:29;;;;;;;5.13;3.60;;;16.70;35.90;;;;;;5014272;28;20193;-70
2023/01/29 10:43:03;;;;;;;5.38;3.78;;;16.70;36.00;;;;;;5013873;28;20197;-74
2023/01/29 10:45:40;;;;;;;4.20;3.47;;;16.70;36.00;;;;;;5014316;28;20228;-70
2023/01/29 10:48:37;;;;;;;4.28;3.78;;;16.70;36.00;;;;;;5014011;28;20189;-72
2023/01/29 10:51:14;;;;;;;6.38;3.33;;;16.70;36.00;;;;;;5014147;28;20228;-71
2023/01/29 10:53:52;;;;;;;3.83;3.17;;;16.70;36.10;;;;;;5014051;28;20193;-70
2023/01/29 10:56:47;;;;;;;5.53;3.60;;;16.70;36.10;;;;;;5014106;28;20271;-71
2023/01/29 10:59:32;;;;;;;4.55;3.45;;;16.70;36.10;;;;;;5013943;28;20647;-70
2023/01/29 11:02:02;;;;;;;5.00;3.60;;;16.70;36.10;;;;;;5013900;28;20221;-71
2023/01/29 11:04:31;;;;;;;5.85;3.72;;;16.70;36.20;;;;;;5013452;28;20224;-72
2023/01/29 11:07:00;;;;;;;4.65;3.20;;;16.70;36.20;;;;;;5013726;28;20275;-70
2023/01/29 11:09:32;;;;;;;4.85;3.50;;;16.70;36.20;;;;;;5013660;28;20290;-70
2023/01/29 11:12:13;;;;;;;4.88;3.47;;;16.70;36.20;;;;;;5013667;28;20279;-71
2023/01/29 11:14:45;;;;;;;5.35;3.30;;;16.70;36.30;;;;;;5013361;28;20189;-71
2023/01/29 11:17:16;;;;;;;3.95;3.38;;;16.70;36.30;;;;;;5012892;28;20221;-71
2023/01/29 11:19:45;;;;;;;4.43;3.53;;;16.70;36.30;;;;;;5013568;28;20215;-71
2023/01/29 11:22:16;;;;;;;4.10;3.58;;;16.70;36.40;;;;;;5013570;28;20225;-74
2023/01/29 11:24:43;;;;;;;4.30;3.30;;;16.70;36.40;;;;;;5013151;28;20189;-70
2023/01/29 11:27:24;;;;;;;3.10;2.75;;;16.70;36.40;;;;;;5013578;28;20216;-72
2023/01/29 11:29:53;;;;;;;3.45;3.00;;;16.70;36.60;;;;;;5013366;28;20256;-70
2023/01/29 11:32:29;;;;;;;4.50;3.03;;;16.70;36.60;;;;;;5013478;28;20267;-70
2023/01/29 11:34:59;;;;;;;5.03;3.15;;;16.70;36.60;;;;;;5013319;28;20247;-71
2023/01/29 11:37:34;;;;;;;3.35;2.67;;;16.70;36.60;;;;;;5013848;28;20204;-70
2023/01/29 11:40:01;;;;;;;3.40;2.55;;;16.70;36.60;;;;;;5012943;28;20189;-73
2023/01/29 11:42:33;;;;;;;3.30;2.83;;;16.70;36.60;;;;;;5013434;28;20213;-70
2023/01/29 11:45:00;;;;;;;3.25;2.50;;;16.70;36.70;;;;;;5012887;28;20190;-71
2023/01/29 11:47:30;;;;;;;3.65;2.45;;;16.70;36.70;;;;;;5012793;28;20711;-74
2023/01/29 11:50:00;;;;;;;3.08;2.63;;;16.70;36.70;;;;;;5013037;28;20224;-71
2023/01/29 11:52:36;;;;;;;4.10;2.75;;;16.70;36.80;;;;;;5012950;28;20228;-72
2023/01/29 11:55:12;;;;;;;2.88;2.58;;;16.70;36.80;;;;;;5012956;28;20243;-70
2023/01/29 11:57:43;;;;;;;4.05;2.40;;;16.70;36.80;;;;;;5012938;28;20185;-71
2023/01/29 12:00:21;;;;;;;3.28;2.83;;;16.70;36.90;;;;;;5013017;28;20189;-73
2023/01/29 12:02:53;;;;;;;2.88;2.45;;;16.70;37.60;;;;;;4994404;28;20725;-70
2023/01/29 12:05:24;;;;;;;3.35;2.40;;;16.70;37.00;;;;;;5012559;28;20284;-70
2023/01/29 12:07:53;;;;;;;3.45;2.38;;;16.70;37.00;;;;;;5013171;28;20224;-70
2023/01/29 12:10:35;;;;;;;3.92;2.22;;;16.70;37.00;;;;;;5012669;28;20715;-70
2023/01/29 12:13:18;;;;;;;3.22;2.40;;;16.70;37.10;;;;;;5012444;28;20251;-70
2023/01/29 12:15:46;;;;;;;3.17;2.50;;;16.70;37.00;;;;;;5012721;28;20212;-70
2023/01/29 12:18:22;;;;;;;2.58;2.00;;;16.70;37.10;;;;;;5012335;28;20189;-71
2023/01/29 12:20:53;;;;;;;2.25;1.90;;;16.70;37.10;;;;;;5012723;28;20220;-71
2023/01/29 12:23:31;;;;;;;2.40;2.00;;;16.60;37.10;;;;;;5012690;28;20197;-71
2023/01/29 12:26:02;;;;;;;2.67;2.22;;;16.70;37.30;;;;;;5012606;28;20213;-70
2023/01/29 12:28:42;;;;;;;1.95;1.75;;;16.70;37.20;;;;;;5012625;28;20228;-74
2023/01/29 12:31:19;;;;;;;2.00;1.80;;;16.70;37.30;;;;;;5016559;28;20225;-70
2023/01/29 12:33:52;;;;;;;1.90;1.70;;;16.70;37.30;;;;;;5016585;28;20242;-70
2023/01/29 12:36:23;;;;;;;1.88;1.67;;;16.70;37.40;;;;;;5016650;28;20271;-70
2023/01/29 12:38:50;;;;;;;2.42;2.00;;;16.70;37.40;;;;;;5016587;28;20247;-70
2023/01/29 12:41:29;;;;;;;2.03;1.80;;;16.70;37.40;;;;;;5016615;28;20294;-70
2023/01/29 12:44:03;;;;;;;2.40;1.90;;;16.70;37.40;;;;;;5016459;28;20193;-70
2023/01/29 12:46:37;;;;;;;1.92;1.67;;;16.70;37.40;;;;;;5016318;28;20216;-70
2023/01/29 12:49:13;;;;;;;2.30;1.80;;;16.70;37.50;;;;;;5015691;28;20193;-70
2023/01/29 12:51:47;;;;;;;2.70;1.80;;;16.70;37.50;;;;;;5015990;28;20217;-71
2023/01/29 12:54:19;;;;;;;1.70;1.60;;;16.70;37.60;;;;;;5016324;28;20227;-70
2023/01/29 12:56:49;;;;;;;1.70;1.45;;;16.70;37.60;;;;;;5016780;28;20217;-71
2023/01/29 12:59:24;;;;;;;2.83;1.50;;;16.70;37.70;;;;;;5016298;28;20244;-70
2023/01/29 13:01:56;;;;;;;1.70;1.50;;;16.70;37.70;;;;;;5015788;28;20270;-74
2023/01/29 13:04:33;;;;;;;1.75;1.65;;;16.70;37.70;;;;;;5015684;28;20228;-70
2023/01/29 13:07:10;;;;;;;2.30;1.80;;;16.70;37.70;;;;;;5015749;28;20267;-73
2023/01/29 13:09:42;;;;;;;2.03;1.58;;;16.60;37.60;;;;;;5015743;28;20217;-73
2023/01/29 13:12:14;;;;;;;1.75;1.50;;;16.70;37.70;;;;;;5015982;28;20275;-70
2023/01/29 13:14:48;;;;;;;2.50;1.70;;;16.70;37.70;;;;;;5015895;28;20267;-70
2023/01/29 13:17:21;;;;;;;1.88;1.70;;;16.70;37.80;;;;;;5015490;28;20245;-70
2023/01/29 13:19:51;;;;;;;1.25;1.15;;;16.70;37.80;;;;;;5015511;28;20733;-71
2023/01/29 13:22:23;;;;;;;1.40;1.30;;;16.60;37.80;;;;;;5015668;28;20229;-71
2023/01/29 13:24:51;;;;;;;1.70;1.60;;;16.70;37.90;;;;;;5015448;28;20543;-70
2023/01/29 13:27:24;;;;;;;1.80;1.70;;;16.70;37.90;;;;;;5015397;28;20221;-72
2023/01/29 13:29:53;;;;;;;1.80;1.60;;;16.70;37.90;;;;;;5015364;28;20706;-71
2023/01/29 13:32:23;;;;;;;1.92;1.38;;;16.70;37.90;;;;;;5015217;28;20275;-70
2023/01/29 13:34:52;;;;;;;1.85;1.33;;;16.70;38.00;;;;;;5015567;28;20240;-70
2023/01/29 13:37:30;;;;;;;1.55;1.23;;;16.60;37.90;;;;;;5015557;28;20217;-73
2023/01/29 13:40:00;;;;;;;1.30;1.20;;;16.70;38.10;;;;;;5015122;28;20247;-70
2023/01/29 13:42:39;;;;;;;1.65;1.33;;;16.70;38.10;;;;;;5015142;28;20579;-70
2023/01/29 13:45:18;;;;;;;1.75;1.30;;;16.60;38.00;;;;;;5015436;28;20239;-70